Time;durP1;ratioP1;P1;durP2;ratioP2;P2;SDS_P1;SDS_P2;PMS_P1;PMS_P2;Temp;Humidity;BMP_temperature;BMP_pressure;BME280_temperature;BME280_humidity;BME280_pressure;Samples;Min_cycle;Max_cycle;Signal;HPM_P1;HPM_P2
2021/01/20 00:01:19;;;;;;;18.85;9.90;;;;;;;;;;5053433;28;20416;-79
2021/01/20 00:03:45;;;;;;;16.38;8.98;;;;;;;;;;5053606;28;20021;-79
2021/01/20 00:06:11;;;;;;;22.25;9.93;;;;;;;;;;5053583;28;20043;-79
2021/01/20 00:08:38;;;;;;;14.90;8.85;;;;;;;;;;5054185;28;20318;-79
2021/01/20 00:11:04;;;;;;;20.50;11.70;;;;;;;;;;5053486;28;20052;-79
2021/01/20 00:13:30;;;;;;;18.05;9.70;;;;;;;;;;5053099;28;20025;-79
2021/01/20 00:15:56;;;;;;;19.70;9.77;;;;;;;;;;5054357;28;20048;-79
2021/01/20 00:18:22;;;;;;;18.63;8.85;;;;;;;;;;5052952;28;20037;-79
2021/01/20 00:20:48;;;;;;;17.45;11.02;;;;;;;;;;5053204;28;20030;-79
2021/01/20 00:23:14;;;;;;;17.70;9.35;;;;;;;;;;5053337;28;20278;-79
2021/01/20 00:25:40;;;;;;;17.02;10.07;;;;;;;;;;5052892;28;20025;-78
2021/01/20 00:28:06;;;;;;;15.88;9.40;;;;;;;;;;5052601;28;20029;-79
2021/01/20 00:30:32;;;;;;;17.23;9.23;;;;;;;;;;5052668;28;20094;-79
2021/01/20 00:32:58;;;;;;;17.60;9.75;;;;;;;;;;5053031;28;20032;-79
2021/01/20 00:35:24;;;;;;;16.33;10.75;;;;;;;;;;5054061;28;20048;-78
2021/01/20 00:37:51;;;;;;;17.15;10.57;;;;;;;;;;5052806;28;20052;-79
2021/01/20 00:40:17;;;;;;;15.50;8.25;;;;;;;;;;5052894;28;20098;-79
2021/01/20 00:42:44;;;;;;;18.30;10.98;;;;;;;;;;5052553;28;20080;-79
2021/01/20 00:45:10;;;;;;;16.80;8.38;;;;;;;;;;5054134;28;20446;-80
2021/01/20 00:47:36;;;;;;;13.65;8.57;;;;;;;;;;5052641;28;20021;-79
2021/01/20 00:50:03;;;;;;;17.92;9.98;;;;;;;;;;5052925;28;20017;-79
2021/01/20 00:52:29;;;;;;;11.65;5.97;;;;;;;;;;5052624;28;20052;-79
2021/01/20 00:54:55;;;;;;;18.38;8.50;;;;;;;;;;5052705;28;20480;-80
2021/01/20 00:57:21;;;;;;;15.02;9.52;;;;;;;;;;5053906;28;20017;-79
2021/01/20 00:59:47;;;;;;;12.80;6.95;;;;;;;;;;5052525;28;20021;-79
2021/01/20 01:02:13;;;;;;;17.08;8.48;;;;;;;;;;5052458;28;20453;-79
2021/01/20 01:04:39;;;;;;;11.38;6.68;;;;;;;;;;5052254;28;20025;-80
2021/01/20 01:07:05;;;;;;;15.02;8.43;;;;;;;;;;5052294;28;20098;-79
2021/01/20 01:09:31;;;;;;;15.23;7.60;;;;;;;;;;5052146;28;20484;-79
2021/01/20 01:11:57;;;;;;;18.13;9.55;;;;;;;;;;5051975;28;20020;-79
2021/01/20 01:14:23;;;;;;;16.15;8.15;;;;;;;;;;5052078;28;20055;-79
2021/01/20 01:16:49;;;;;;;20.67;8.63;;;;;;;;;;5053279;28;20044;-79
2021/01/20 01:19:15;;;;;;;16.48;7.80;;;;;;;;;;5053331;28;20024;-79
2021/01/20 01:21:43;;;;;;;15.00;7.57;;;;;;;;;;5051954;28;20025;-79
2021/01/20 01:24:09;;;;;;;14.63;8.02;;;;;;;;;;5052185;28;20044;-79
2021/01/20 01:26:35;;;;;;;13.43;7.22;;;;;;;;;;5051809;28;20465;-78
2021/01/20 01:29:01;;;;;;;13.18;7.78;;;;;;;;;;5053055;28;20056;-79
2021/01/20 01:31:27;;;;;;;13.25;7.05;;;;;;;;;;5051732;28;20056;-79
2021/01/20 01:33:53;;;;;;;15.27;6.82;;;;;;;;;;5052088;28;20111;-79
2021/01/20 01:36:19;;;;;;;14.75;7.28;;;;;;;;;;5051591;28;20021;-79
2021/01/20 01:38:45;;;;;;;10.52;6.82;;;;;;;;;;5050899;28;20074;-79
2021/01/20 01:41:11;;;;;;;17.73;8.15;;;;;;;;;;5051749;28;20025;-79
2021/01/20 01:43:37;;;;;;;14.13;8.15;;;;;;;;;;5051304;28;20045;-79
2021/01/20 01:46:03;;;;;;;12.52;6.78;;;;;;;;;;5051775;28;20021;-79
2021/01/20 01:48:29;;;;;;;13.95;6.68;;;;;;;;;;5051368;28;20040;-79
2021/01/20 01:50:55;;;;;;;16.17;6.82;;;;;;;;;;5051633;28;20063;-79
2021/01/20 01:53:21;;;;;;;16.58;7.60;;;;;;;;;;5051585;28;20028;-79
2021/01/20 01:55:50;;;;;;;16.75;7.70;;;;;;;;;;5052805;28;20129;-79
2021/01/20 01:58:16;;;;;;;13.77;6.80;;;;;;;;;;5051444;28;20472;-79
2021/01/20 02:00:42;;;;;;;12.88;6.30;;;;;;;;;;5051184;28;20515;-79
2021/01/20 02:03:08;;;;;;;14.07;7.25;;;;;;;;;;5051393;28;20465;-79
2021/01/20 02:05:34;;;;;;;13.70;6.93;;;;;;;;;;5051017;28;20024;-79
2021/01/20 02:08:03;;;;;;;10.98;5.93;;;;;;;;;;5051134;28;20021;-79
2021/01/20 02:10:29;;;;;;;12.13;6.30;;;;;;;;;;5050982;28;20113;-79
2021/01/20 02:13:06;;;;;;;12.73;6.78;;;;;;;;;;5051245;28;20017;-79
2021/01/20 02:15:36;;;;;;;13.82;6.95;;;;;;;;;;5050981;28;20024;-79
2021/01/20 02:18:03;;;;;;;12.60;7.10;;;;;;;;;;5051122;28;20062;-79
2021/01/20 02:20:32;;;;;;;10.93;6.28;;;;;;;;;;5050859;28;20029;-79
2021/01/20 02:22:59;;;;;;;16.98;8.02;;;;;;;;;;5051088;28;20063;-79
2021/01/20 02:25:34;;;;;;;14.23;8.27;;;;;;;;;;5052179;28;20060;-78
2021/01/20 02:28:14;;;;;;;18.27;8.48;;;;;;;;;;5052379;28;20178;-79
2021/01/20 02:30:42;;;;;;;14.10;6.32;;;;;;;;;;5050644;28;20036;-78
2021/01/20 02:33:09;;;;;;;13.10;7.25;;;;;;;;;;5051076;28;20036;-79
2021/01/20 02:35:35;;;;;;;17.75;7.70;;;;;;;;;;5050648;28;20504;-78
2021/01/20 02:38:02;;;;;;;17.45;8.50;;;;;;;;;;5052076;28;20028;-79
2021/01/20 02:40:28;;;;;;;13.90;7.40;;;;;;;;;;5052175;28;20040;-78
2021/01/20 02:42:54;;;;;;;15.95;7.53;;;;;;;;;;5050551;28;20504;-78
2021/01/20 02:45:20;;;;;;;14.43;6.90;;;;;;;;;;5050538;28;20017;-78
2021/01/20 02:47:48;;;;;;;18.95;7.47;;;;;;;;;;5051706;28;20036;-79
2021/01/20 02:50:14;;;;;;;13.90;6.82;;;;;;;;;;5052457;28;20159;-78
2021/01/20 02:52:53;;;;;;;14.10;7.95;;;;;;;;;;5054551;28;20056;-78
2021/01/20 02:55:21;;;;;;;16.15;7.85;;;;;;;;;;5056134;28;20136;-79
2021/01/20 02:57:49;;;;;;;14.70;7.15;;;;;;;;;;5054423;28;20521;-79
2021/01/20 03:00:15;;;;;;;11.93;6.95;;;;;;;;;;5055791;28;20036;-78
2021/01/20 03:02:42;;;;;;;10.68;6.63;;;;;;;;;;5054350;28;20457;-80
2021/01/20 03:05:11;;;;;;;15.30;6.82;;;;;;;;;;5054508;28;20361;-78
2021/01/20 03:07:37;;;;;;;14.10;7.70;;;;;;;;;;5054272;28;20040;-79
2021/01/20 03:10:05;;;;;;;10.38;6.35;;;;;;;;;;5054539;28;20048;-79
2021/01/20 03:12:31;;;;;;;14.98;6.55;;;;;;;;;;5055673;28;20036;-79
2021/01/20 03:14:58;;;;;;;14.00;7.20;;;;;;;;;;5055427;28;20061;-79
2021/01/20 03:17:26;;;;;;;11.63;6.47;;;;;;;;;;5054287;28;20013;-79
2021/01/20 03:19:52;;;;;;;11.90;7.10;;;;;;;;;;5054015;28;20504;-79
2021/01/20 03:22:18;;;;;;;15.00;7.40;;;;;;;;;;5054245;28;20047;-79
2021/01/20 03:24:44;;;;;;;13.00;7.63;;;;;;;;;;5053950;28;20021;-79
2021/01/20 03:27:10;;;;;;;12.05;6.68;;;;;;;;;;5054091;28;20017;-79
2021/01/20 03:29:36;;;;;;;10.27;5.50;;;;;;;;;;5055291;28;20029;-78
2021/01/20 03:32:03;;;;;;;12.20;7.05;;;;;;;;;;5055283;28;20442;-79
2021/01/20 03:34:29;;;;;;;13.38;6.07;;;;;;;;;;5053993;28;20049;-79
2021/01/20 03:36:55;;;;;;;14.10;6.93;;;;;;;;;;5055228;28;20026;-79
2021/01/20 03:39:21;;;;;;;14.20;7.63;;;;;;;;;;5053741;28;20028;-79
2021/01/20 03:41:47;;;;;;;11.35;5.95;;;;;;;;;;5054722;28;20052;-79
2021/01/20 03:44:13;;;;;;;11.75;6.85;;;;;;;;;;5053826;28;20043;-79
2021/01/20 03:46:39;;;;;;;10.98;6.90;;;;;;;;;;5053410;28;20136;-79
2021/01/20 03:49:05;;;;;;;13.70;5.47;;;;;;;;;;5053836;28;20024;-78
2021/01/20 03:51:31;;;;;;;14.00;6.50;;;;;;;;;;5054956;28;20021;-79
2021/01/20 03:53:57;;;;;;;9.90;5.00;;;;;;;;;;5053742;28;20109;-79
2021/01/20 03:56:23;;;;;;;13.73;6.07;;;;;;;;;;5053727;28;20049;-79
2021/01/20 03:58:49;;;;;;;9.75;5.95;;;;;;;;;;5053322;28;20032;-79
2021/01/20 04:01:15;;;;;;;12.30;6.15;;;;;;;;;;5053733;28;20025;-79
2021/01/20 04:03:41;;;;;;;12.63;6.00;;;;;;;;;;5053940;28;20020;-79
2021/01/20 04:06:07;;;;;;;10.40;5.93;;;;;;;;;;5054560;28;20017;-79
2021/01/20 04:08:33;;;;;;;9.27;5.15;;;;;;;;;;5053368;28;20017;-79
2021/01/20 04:10:59;;;;;;;9.18;4.85;;;;;;;;;;5053628;28;20495;-79
2021/01/20 04:13:25;;;;;;;13.85;5.93;;;;;;;;;;5053516;28;20021;-78
2021/01/20 04:15:51;;;;;;;9.95;6.10;;;;;;;;;;5053175;28;20017;-79
2021/01/20 04:18:17;;;;;;;10.48;5.53;;;;;;;;;;5054593;28;20017;-78
2021/01/20 04:20:43;;;;;;;8.13;4.47;;;;;;;;;;5053056;28;20434;-78
2021/01/20 04:23:09;;;;;;;10.65;5.20;;;;;;;;;;5054445;28;20044;-78
2021/01/20 04:25:35;;;;;;;11.00;5.35;;;;;;;;;;5052975;28;20025;-78
2021/01/20 04:28:01;;;;;;;9.95;5.07;;;;;;;;;;5053186;28;20350;-79
2021/01/20 04:30:27;;;;;;;9.43;5.40;;;;;;;;;;5053020;28;20021;-80
2021/01/20 04:32:53;;;;;;;8.27;4.43;;;;;;;;;;5052914;28;20059;-79
2021/01/20 04:35:19;;;;;;;9.00;5.25;;;;;;;;;;5068535;28;20055;-80
2021/01/20 04:37:45;;;;;;;9.25;4.38;;;;;;;;;;5074052;28;20012;-79
2021/01/20 04:40:12;;;;;;;9.07;4.68;;;;;;;;;;5072919;28;20031;-80
2021/01/20 04:42:38;;;;;;;10.73;6.30;;;;;;;;;;5073959;28;20040;-79
2021/01/20 04:45:05;;;;;;;8.60;4.32;;;;;;;;;;5072881;28;20024;-80
2021/01/20 04:47:33;;;;;;;10.52;5.03;;;;;;;;;;5073908;28;20017;-78
2021/01/20 04:49:59;;;;;;;9.73;4.00;;;;;;;;;;5072737;28;20017;-79
2021/01/20 04:52:27;;;;;;;8.23;4.13;;;;;;;;;;5073982;28;20429;-79
2021/01/20 04:54:54;;;;;;;8.27;4.05;;;;;;;;;;5072362;28;20074;-79
2021/01/20 04:57:21;;;;;;;9.50;4.32;;;;;;;;;;5072610;28;20468;-79
2021/01/20 04:59:49;;;;;;;10.68;5.15;;;;;;;;;;5072252;28;20068;-79
2021/01/20 05:02:15;;;;;;;8.68;4.68;;;;;;;;;;5072508;28;20051;-79
2021/01/20 05:04:41;;;;;;;9.88;5.22;;;;;;;;;;5072184;28;20046;-79
2021/01/20 05:07:08;;;;;;;9.43;4.78;;;;;;;;;;5072405;28;20043;-79
2021/01/20 05:09:35;;;;;;;8.73;3.83;;;;;;;;;;5072385;28;20170;-79
2021/01/20 05:12:01;;;;;;;9.60;4.43;;;;;;;;;;5072335;28;20643;-79
2021/01/20 05:14:27;;;;;;;9.65;4.60;;;;;;;;;;5072200;28;20017;-79
2021/01/20 05:16:54;;;;;;;8.48;5.38;;;;;;;;;;5071979;28;20013;-79
2021/01/20 05:19:37;;;;;;;8.00;4.50;;;;;;;;;;5072092;28;20024;-79
2021/01/20 05:22:12;;;;;;;8.48;4.65;;;;;;;;;;5072117;28;20538;-79
2021/01/20 05:24:38;;;;;;;10.45;5.45;;;;;;;;;;5071934;28;20087;-79
2021/01/20 05:27:05;;;;;;;9.02;4.47;;;;;;;;;;5073110;28;20066;-79
2021/01/20 05:29:31;;;;;;;14.88;5.35;;;;;;;;;;5070921;28;20020;-79
2021/01/20 05:31:57;;;;;;;7.78;4.53;;;;;;;;;;5051362;28;20108;-79
2021/01/20 05:34:24;;;;;;;10.85;5.05;;;;;;;;;;5052009;28;20155;-79
2021/01/20 05:37:00;;;;;;;9.45;4.05;;;;;;;;;;5051506;28;20028;-79
2021/01/20 05:39:26;;;;;;;8.10;4.85;;;;;;;;;;5052741;28;20434;-79
2021/01/20 05:41:59;;;;;;;9.15;4.25;;;;;;;;;;5052274;28;20096;-79
2021/01/20 05:44:25;;;;;;;9.05;5.05;;;;;;;;;;5051660;28;20469;-80
2021/01/20 05:46:51;;;;;;;7.47;3.88;;;;;;;;;;5052760;28;20020;-80
2021/01/20 05:49:21;;;;;;;10.82;4.45;;;;;;;;;;5051627;28;20033;-80
2021/01/20 05:51:47;;;;;;;9.40;5.18;;;;;;;;;;5052754;28;20155;-80
2021/01/20 05:54:14;;;;;;;9.27;4.30;;;;;;;;;;5051590;28;20059;-79
2021/01/20 05:56:40;;;;;;;9.35;4.20;;;;;;;;;;5051257;28;20083;-79
2021/01/20 05:59:09;;;;;;;8.25;4.43;;;;;;;;;;5051386;28;20427;-79
2021/01/20 06:01:36;;;;;;;6.87;3.57;;;;;;;;;;5052813;28;20013;-80
2021/01/20 06:04:02;;;;;;;9.40;4.40;;;;;;;;;;5052439;28;20013;-80
2021/01/20 06:06:28;;;;;;;9.85;4.22;;;;;;;;;;5052743;28;20021;-80
2021/01/20 06:08:55;;;;;;;10.45;4.50;;;;;;;;;;5051109;28;20032;-80
2021/01/20 06:11:22;;;;;;;7.57;3.75;;;;;;;;;;5052729;28;20063;-80
2021/01/20 06:13:48;;;;;;;7.35;4.10;;;;;;;;;;5051105;28;20060;-80
2021/01/20 06:16:20;;;;;;;7.63;3.85;;;;;;;;;;5052548;28;20477;-80
2021/01/20 06:18:48;;;;;;;9.00;4.60;;;;;;;;;;5050702;28;20066;-80
2021/01/20 06:21:18;;;;;;;8.48;3.97;;;;;;;;;;5051100;28;20024;-80
2021/01/20 06:24:03;;;;;;;9.55;4.38;;;;;;;;;;5050763;28;20021;-80
2021/01/20 06:26:29;;;;;;;7.72;3.75;;;;;;;;;;5050570;28;20028;-80
2021/01/20 06:28:57;;;;;;;6.28;3.40;;;;;;;;;;5050746;28;20422;-80
2021/01/20 06:31:24;;;;;;;7.50;3.65;;;;;;;;;;5050883;28;20017;-80
2021/01/20 06:33:50;;;;;;;8.32;3.80;;;;;;;;;;5050771;28;20020;-80
2021/01/20 06:36:30;;;;;;;8.15;3.85;;;;;;;;;;5050936;28;20017;-80
2021/01/20 06:38:56;;;;;;;7.60;3.58;;;;;;;;;;5050636;28;20059;-79
2021/01/20 06:41:37;;;;;;;7.85;3.55;;;;;;;;;;5052342;28;20071;-79
2021/01/20 06:44:14;;;;;;;6.22;3.33;;;;;;;;;;5050023;28;20047;-78
2021/01/20 06:46:58;;;;;;;7.43;3.17;;;;;;;;;;5050560;28;20480;-79
2021/01/20 06:49:25;;;;;;;6.85;3.38;;;;;;;;;;5050652;28;20021;-80
2021/01/20 06:52:09;;;;;;;7.93;3.58;;;;;;;;;;5051820;28;20017;-79
2021/01/20 06:54:37;;;;;;;7.88;3.40;;;;;;;;;;5050538;28;20063;-80
2021/01/20 06:57:03;;;;;;;6.57;3.33;;;;;;;;;;5050472;28;20028;-80
2021/01/20 06:59:30;;;;;;;6.85;3.45;;;;;;;;;;5052077;28;20147;-80
2021/01/20 07:02:10;;;;;;;5.40;3.17;;;;;;;;;;5050356;28;20021;-79
2021/01/20 07:04:39;;;;;;;6.03;2.85;;;;;;;;;;5052002;28;20021;-79
2021/01/20 07:07:05;;;;;;;6.68;3.20;;;;;;;;;;5050236;28;20079;-79
2021/01/20 07:09:49;;;;;;;5.30;2.70;;;;;;;;;;5051904;28;20057;-79
2021/01/20 07:12:19;;;;;;;9.55;3.83;;;;;;;;;;5051516;28;20020;-79
2021/01/20 07:14:45;;;;;;;4.70;2.53;;;;;;;;;;5051595;28;20450;-79
2021/01/20 07:17:12;;;;;;;7.05;2.97;;;;;;;;;;5051737;28;20052;-79
2021/01/20 07:19:39;;;;;;;6.93;3.00;;;;;;;;;;5051845;28;20052;-78
2021/01/20 07:22:05;;;;;;;5.35;2.72;;;;;;;;;;5051825;28;20165;-79
2021/01/20 07:24:31;;;;;;;6.38;3.13;;;;;;;;;;5050431;28;20025;-78
2021/01/20 07:27:03;;;;;;;5.50;2.50;;;;;;;;;;5051456;28;20048;-78
2021/01/20 07:29:32;;;;;;;7.32;3.10;;;;;;;;;;5051573;28;20075;-79
2021/01/20 07:31:58;;;;;;;7.00;2.45;;;;;;;;;;5050005;28;20025;-79
2021/01/20 07:34:33;;;;;;;6.28;3.20;;;;;;;;;;5050262;28;20021;-79
2021/01/20 07:37:13;;;;;;;5.40;2.53;;;;;;;;;;5066161;28;20032;-78
2021/01/20 07:39:39;;;;;;;4.82;2.50;;;;;;;;;;5075311;28;20449;-78
2021/01/20 07:42:06;;;;;;;6.10;3.00;;;;;;;;;;5074610;28;20044;-79
2021/01/20 07:44:32;;;;;;;5.65;2.95;;;;;;;;;;5074176;28;20453;-78
2021/01/20 07:47:02;;;;;;;4.15;2.08;;;;;;;;;;5074048;28;20059;-79
2021/01/20 07:49:28;;;;;;;;;;;;;;;;;;5073846;28;20021;-79
2021/01/20 07:52:01;;;;;;;5.15;2.80;;;;;;;;;;5073657;28;20398;-78
2021/01/20 07:54:37;;;;;;;7.70;2.88;;;;;;;;;;5073531;28;20020;-79
2021/01/20 07:57:04;;;;;;;6.57;2.72;;;;;;;;;;5073588;28;20031;-79
2021/01/20 07:59:32;;;;;;;6.88;3.15;;;;;;;;;;5074552;28;20376;-79
2021/01/20 08:02:11;;;;;;;6.30;2.22;;;;;;;;;;5073294;28;20105;-79
2021/01/20 08:04:37;;;;;;;6.72;2.45;;;;;;;;;;5073537;28;20027;-79
2021/01/20 08:07:04;;;;;;;6.03;2.95;;;;;;;;;;5073469;28;20337;-79
2021/01/20 08:09:36;;;;;;;5.50;2.50;;;;;;;;;;5072553;28;20028;-79
2021/01/20 08:12:04;;;;;;;6.45;3.20;;;;;;;;;;5073023;28;20024;-79
2021/01/20 08:14:30;;;;;;;5.10;2.65;;;;;;;;;;5073471;28;20012;-79
2021/01/20 08:16:56;;;;;;;5.35;2.67;;;;;;;;;;5074119;28;20329;-78
2021/01/20 08:19:22;;;;;;;5.88;2.78;;;;;;;;;;5073139;28;20074;-78
2021/01/20 08:21:48;;;;;;;6.75;3.50;;;;;;;;;;5074311;28;20021;-78
2021/01/20 08:24:20;;;;;;;7.40;3.03;;;;;;;;;;5072933;28;20025;-78
2021/01/20 08:26:52;;;;;;;5.38;2.80;;;;;;;;;;5072794;28;20032;-79
2021/01/20 08:29:21;;;;;;;5.65;2.40;;;;;;;;;;5074368;28;20025;-79
2021/01/20 08:31:47;;;;;;;8.30;3.90;;;;;;;;;;5052769;28;20024;-79
2021/01/20 08:34:21;;;;;;;4.15;2.17;;;;;;;;;;5054670;28;20053;-79
2021/01/20 08:36:53;;;;;;;6.18;3.25;;;;;;;;;;5053046;28;20017;-80
2021/01/20 08:39:19;;;;;;;6.38;2.35;;;;;;;;;;5052859;28;20051;-77
2021/01/20 08:42:03;;;;;;;5.90;2.72;;;;;;;;;;5052747;28;20025;-78
2021/01/20 08:44:29;;;;;;;7.20;2.88;;;;;;;;;;5054306;28;20070;-78
2021/01/20 08:46:55;;;;;;;6.75;3.45;;;;;;;;;;5052464;28;20024;-77
2021/01/20 08:49:21;;;;;;;6.05;2.83;;;;;;;;;;5052311;28;20025;-78
2021/01/20 08:51:57;;;;;;;5.95;3.10;;;;;;;;;;5052579;28;20017;-78
2021/01/20 08:54:24;;;;;;;7.18;3.28;;;;;;;;;;5053968;28;20148;-78
2021/01/20 08:56:50;;;;;;;6.13;3.15;;;;;;;;;;5051635;28;20067;-78
2021/01/20 08:59:16;;;;;;;6.43;2.60;;;;;;;;;;5051995;28;20099;-79
2021/01/20 09:01:42;;;;;;;6.78;2.85;;;;;;;;;;5052126;28;20112;-79
2021/01/20 09:04:08;;;;;;;6.78;2.83;;;;;;;;;;5051749;28;20025;-79
2021/01/20 09:06:34;;;;;;;6.78;2.90;;;;;;;;;;5052355;28;20032;-79
2021/01/20 09:09:00;;;;;;;11.38;2.90;;;;;;;;;;5051912;28;20548;-79
2021/01/20 09:11:27;;;;;;;6.32;2.92;;;;;;;;;;5052205;28;20449;-78
2021/01/20 09:13:54;;;;;;;4.82;2.30;;;;;;;;;;5051929;28;20457;-78
2021/01/20 09:16:30;;;;;;;6.28;2.50;;;;;;;;;;5052165;28;20025;-78
2021/01/20 09:18:57;;;;;;;4.20;1.95;;;;;;;;;;5053131;28;20028;-78
2021/01/20 09:21:23;;;;;;;5.03;2.63;;;;;;;;;;5052206;28;20055;-79
2021/01/20 09:23:49;;;;;;;5.80;2.72;;;;;;;;;;5052130;28;20068;-78
2021/01/20 09:26:15;;;;;;;5.50;2.80;;;;;;;;;;5053259;28;20035;-79
2021/01/20 09:28:41;;;;;;;5.28;2.25;;;;;;;;;;5051922;28;20024;-79
2021/01/20 09:31:08;;;;;;;4.85;2.30;;;;;;;;;;5051462;28;20028;-79
2021/01/20 09:33:34;;;;;;;4.75;2.10;;;;;;;;;;5053286;28;20349;-79
2021/01/20 09:36:00;;;;;;;3.40;1.80;;;;;;;;;;5051626;28;20354;-79
2021/01/20 09:38:26;;;;;;;5.95;2.33;;;;;;;;;;5051762;28;20392;-79
2021/01/20 09:40:52;;;;;;;4.93;2.38;;;;;;;;;;5051181;28;20119;-79
2021/01/20 09:43:21;;;;;;;4.13;1.90;;;;;;;;;;5052602;28;20072;-78
2021/01/20 09:45:47;;;;;;;5.13;2.13;;;;;;;;;;5049724;28;20062;-78
2021/01/20 09:48:13;;;;;;;4.43;2.15;;;;;;;;;;5050960;28;20377;-77
2021/01/20 09:50:39;;;;;;;4.13;1.77;;;;;;;;;;5052585;28;20017;-78
2021/01/20 09:53:05;;;;;;;4.43;2.20;;;;;;;;;;5052956;28;20515;-78
2021/01/20 09:55:32;;;;;;;4.88;2.70;;;;;;;;;;5051459;28;20021;-78
2021/01/20 09:58:02;;;;;;;3.72;1.77;;;;;;;;;;5051064;28;20025;-78
2021/01/20 10:00:28;;;;;;;4.65;1.92;;;;;;;;;;5052065;28;20032;-78
2021/01/20 10:02:54;;;;;;;5.45;1.90;;;;;;;;;;5051265;28;20120;-78
2021/01/20 10:05:20;;;;;;;4.53;1.90;;;;;;;;;;5051311;28;20056;-77
2021/01/20 10:07:46;;;;;;;4.15;1.92;;;;;;;;;;5051350;28;20051;-80
2021/01/20 10:10:13;;;;;;;4.85;2.10;;;;;;;;;;5051174;28;20771;-81
2021/01/20 10:12:39;;;;;;;3.47;1.58;;;;;;;;;;5051313;28;20111;-81
2021/01/20 10:15:06;;;;;;;4.45;1.60;;;;;;;;;;5051156;28;20025;-80
2021/01/20 10:17:32;;;;;;;4.50;1.85;;;;;;;;;;5051190;28;20024;-81
2021/01/20 10:19:58;;;;;;;4.70;1.58;;;;;;;;;;5050848;28;20025;-80
2021/01/20 10:22:24;;;;;;;3.90;1.55;;;;;;;;;;5052382;28;20016;-80
2021/01/20 10:24:50;;;;;;;3.47;1.80;;;;;;;;;;5050921;28;20103;-80
2021/01/20 10:27:17;;;;;;;3.03;1.38;;;;;;;;;;5050646;28;20102;-81
2021/01/20 10:29:43;;;;;;;4.28;1.95;;;;;;;;;;5053363;28;20020;-80
2021/01/20 10:32:09;;;;;;;4.10;1.45;;;;;;;;;;5070895;28;20012;-80
2021/01/20 10:34:35;;;;;;;3.50;1.52;;;;;;;;;;5071109;28;20024;-80
2021/01/20 10:37:02;;;;;;;4.88;1.63;;;;;;;;;;5070433;28;20023;-80
2021/01/20 10:39:28;;;;;;;4.95;2.00;;;;;;;;;;5067828;28;20036;-80
2021/01/20 10:41:54;;;;;;;5.10;1.98;;;;;;;;;;5061717;28;20045;-82
2021/01/20 10:44:21;;;;;;;5.78;1.45;;;;;;;;;;5052446;28;20021;-79
2021/01/20 10:46:50;;;;;;;4.78;1.85;;;;;;;;;;5052020;28;20408;-80
2021/01/20 10:49:16;;;;;;;4.38;1.83;;;;;;;;;;5052127;28;20056;-80
2021/01/20 10:51:42;;;;;;;3.88;2.10;;;;;;;;;;5052099;28;20020;-80
2021/01/20 10:54:08;;;;;;;4.28;1.67;;;;;;;;;;5051635;28;20021;-80
2021/01/20 10:56:34;;;;;;;3.38;1.50;;;;;;;;;;5051771;28;20017;-80
2021/01/20 10:59:01;;;;;;;3.97;1.60;;;;;;;;;;5051709;28;20029;-80
2021/01/20 11:01:27;;;;;;;6.07;2.20;;;;;;;;;;5052036;28;20120;-80
2021/01/20 11:03:53;;;;;;;7.05;2.10;;;;;;;;;;5052026;28;20025;-79
2021/01/20 11:06:19;;;;;;;5.22;1.58;;;;;;;;;;5051520;28;20132;-80
2021/01/20 11:08:45;;;;;;;5.15;1.98;;;;;;;;;;5051595;28;20029;-80
2021/01/20 11:11:12;;;;;;;6.03;2.13;;;;;;;;;;5052278;28;20178;-80
2021/01/20 11:13:38;;;;;;;4.85;1.70;;;;;;;;;;5056768;28;20025;-79
2021/01/20 11:16:05;;;;;;;4.65;1.85;;;;;;;;;;5058530;28;20339;-79
2021/01/20 11:18:35;;;;;;;4.90;2.63;;;;;;;;;;5056149;28;20052;-80
2021/01/20 11:21:01;;;;;;;6.07;1.88;;;;;;;;;;5055619;28;20107;-78
2021/01/20 11:23:35;;;;;;;4.03;1.92;;;;;;;;;;5055656;28;20021;-79
2021/01/20 11:26:01;;;;;;;3.97;1.70;;;;;;;;;;5055759;28;20025;-79
2021/01/20 11:28:27;;;;;;;5.38;2.33;;;;;;;;;;5056095;28;20020;-79
2021/01/20 11:30:55;;;;;;;5.70;1.95;;;;;;;;;;5055805;28;20017;-77
2021/01/20 11:33:21;;;;;;;4.75;1.83;;;;;;;;;;5057035;28;20357;-79
2021/01/20 11:35:47;;;;;;;4.32;1.83;;;;;;;;;;5056892;28;20021;-79
2021/01/20 11:38:13;;;;;;;3.28;1.50;;;;;;;;;;5056321;28;20029;-79
2021/01/20 11:40:39;;;;;;;4.75;1.83;;;;;;;;;;5056826;28;20103;-78
2021/01/20 11:43:06;;;;;;;5.50;1.92;;;;;;;;;;5054433;28;20128;-79
2021/01/20 11:45:33;;;;;;;3.92;1.77;;;;;;;;;;5056178;28;20617;-78
2021/01/20 11:47:59;;;;;;;4.55;1.58;;;;;;;;;;5054809;28;20083;-78
2021/01/20 11:50:25;;;;;;;4.38;1.73;;;;;;;;;;5054959;28;20242;-80
2021/01/20 11:52:52;;;;;;;5.22;1.50;;;;;;;;;;5055631;28;20040;-79
2021/01/20 11:55:18;;;;;;;5.75;2.20;;;;;;;;;;5054699;28;20021;-77
2021/01/20 11:57:44;;;;;;;5.15;1.95;;;;;;;;;;5055871;28;20044;-79
2021/01/20 12:00:11;;;;;;;5.68;1.50;;;;;;;;;;5055971;28;20063;-79
2021/01/20 12:02:40;;;;;;;4.32;1.50;;;;;;;;;;5054556;28;20343;-78
2021/01/20 12:05:08;;;;;;;5.72;2.22;;;;;;;;;;5054266;28;20155;-79
2021/01/20 12:07:34;;;;;;;4.85;1.80;;;;;;;;;;5055164;28;20127;-79
2021/01/20 12:10:00;;;;;;;6.05;2.10;;;;;;;;;;5053318;28;20103;-79
2021/01/20 12:12:26;;;;;;;7.90;1.90;;;;;;;;;;5054966;28;20021;-79
2021/01/20 12:14:52;;;;;;;2.83;1.42;;;;;;;;;;5055055;28;20357;-79
2021/01/20 12:17:18;;;;;;;5.65;1.95;;;;;;;;;;5054548;28;20024;-79
2021/01/20 12:19:44;;;;;;;4.88;1.50;;;;;;;;;;5053366;28;20021;-79
2021/01/20 12:22:10;;;;;;;5.30;1.50;;;;;;;;;;5053139;28;20025;-79
2021/01/20 12:24:36;;;;;;;5.93;1.80;;;;;;;;;;5053958;28;20044;-80
2021/01/20 12:27:02;;;;;;;4.80;1.70;;;;;;;;;;5054435;28;20017;-78
2021/01/20 12:29:28;;;;;;;4.45;1.85;;;;;;;;;;5054174;28;20041;-78
2021/01/20 12:31:54;;;;;;;5.88;1.77;;;;;;;;;;5053149;28;20017;-80
2021/01/20 12:34:20;;;;;;;3.38;1.60;;;;;;;;;;5052910;28;20025;-80
2021/01/20 12:36:46;;;;;;;5.05;1.90;;;;;;;;;;5053067;28;20052;-80
2021/01/20 12:39:12;;;;;;;5.65;2.00;;;;;;;;;;5052727;28;20445;-80
2021/01/20 12:41:38;;;;;;;3.40;1.20;;;;;;;;;;5052839;28;20441;-80
2021/01/20 12:44:05;;;;;;;4.82;2.03;;;;;;;;;;5052671;28;20044;-79
2021/01/20 12:46:31;;;;;;;4.63;1.90;;;;;;;;;;5052623;28;20021;-79
2021/01/20 12:48:57;;;;;;;6.28;2.05;;;;;;;;;;5053002;28;20036;-80
2021/01/20 12:51:23;;;;;;;5.07;2.05;;;;;;;;;;5052657;28;20021;-80
2021/01/20 12:53:49;;;;;;;4.88;1.88;;;;;;;;;;5052735;28;20016;-79
2021/01/20 12:56:15;;;;;;;3.42;1.50;;;;;;;;;;5052498;28;20036;-79
2021/01/20 12:58:41;;;;;;;5.28;1.63;;;;;;;;;;5052535;28;20450;-79
2021/01/20 13:01:07;;;;;;;4.20;1.70;;;;;;;;;;5052432;28;20063;-79
2021/01/20 13:03:33;;;;;;;6.85;2.00;;;;;;;;;;5052564;28;20052;-79
2021/01/20 13:05:59;;;;;;;7.05;2.15;;;;;;;;;;5052578;28;20020;-79
2021/01/20 13:08:26;;;;;;;5.30;1.95;;;;;;;;;;5052239;28;20027;-79
2021/01/20 13:10:52;;;;;;;4.38;1.75;;;;;;;;;;5052445;28;20248;-79
2021/01/20 13:13:18;;;;;;;5.90;2.25;;;;;;;;;;5052166;28;20067;-79
2021/01/20 13:15:47;;;;;;;4.68;1.73;;;;;;;;;;5052339;28;20116;-79
2021/01/20 13:18:13;;;;;;;6.00;2.60;;;;;;;;;;5053357;28;20090;-79
2021/01/20 13:20:39;;;;;;;5.90;2.17;;;;;;;;;;5052221;28;20017;-79
2021/01/20 13:23:05;;;;;;;5.20;1.77;;;;;;;;;;5051955;28;20051;-79
2021/01/20 13:25:31;;;;;;;4.82;2.03;;;;;;;;;;5052188;28;20067;-79
2021/01/20 13:27:57;;;;;;;7.95;2.03;;;;;;;;;;5052132;28;20429;-79
2021/01/20 13:30:23;;;;;;;5.30;2.53;;;;;;;;;;5052903;28;20899;-80
2021/01/20 13:32:49;;;;;;;6.18;1.98;;;;;;;;;;5052027;28;20013;-79
2021/01/20 13:35:15;;;;;;;4.70;2.10;;;;;;;;;;5050651;28;20025;-79
2021/01/20 13:37:42;;;;;;;4.78;1.50;;;;;;;;;;5051922;28;20021;-79
2021/01/20 13:40:08;;;;;;;6.88;2.40;;;;;;;;;;5051670;28;20496;-79
2021/01/20 13:42:34;;;;;;;5.75;1.85;;;;;;;;;;5051400;28;20049;-79
2021/01/20 13:45:00;;;;;;;4.80;2.05;;;;;;;;;;5051867;28;20024;-79
2021/01/20 13:47:27;;;;;;;3.83;1.85;;;;;;;;;;5051527;28;20041;-79
2021/01/20 13:49:53;;;;;;;4.97;1.95;;;;;;;;;;5052999;28;20032;-79
2021/01/20 13:52:19;;;;;;;5.95;1.90;;;;;;;;;;5051358;28;20017;-79
2021/01/20 13:54:45;;;;;;;4.88;2.10;;;;;;;;;;5053257;28;20029;-80
2021/01/20 13:57:11;;;;;;;5.88;1.80;;;;;;;;;;5051427;28;20021;-80
2021/01/20 13:59:37;;;;;;;3.22;1.70;;;;;;;;;;5051479;28;20036;-80
2021/01/20 14:02:04;;;;;;;8.10;2.13;;;;;;;;;;5051425;28;20021;-81
2021/01/20 14:04:31;;;;;;;6.35;2.00;;;;;;;;;;5051417;28;20013;-79
2021/01/20 14:06:58;;;;;;;8.32;1.70;;;;;;;;;;5051359;28;20420;-80
2021/01/20 14:09:24;;;;;;;5.57;2.22;;;;;;;;;;5051111;28;20098;-80
2021/01/20 14:11:50;;;;;;;4.97;2.25;;;;;;;;;;5052999;28;20041;-80
2021/01/20 14:14:16;;;;;;;4.72;1.80;;;;;;;;;;5051074;28;20036;-80
2021/01/20 14:16:42;;;;;;;5.65;2.03;;;;;;;;;;5052250;28;20017;-79
2021/01/20 14:19:08;;;;;;;4.93;1.98;;;;;;;;;;5050793;28;20052;-79
2021/01/20 14:21:34;;;;;;;6.13;2.03;;;;;;;;;;5050873;28;20461;-79
2021/01/20 14:24:00;;;;;;;6.72;2.42;;;;;;;;;;5051150;28;20017;-79
2021/01/20 14:26:26;;;;;;;5.90;2.08;;;;;;;;;;5050864;28;20029;-79
2021/01/20 14:28:52;;;;;;;3.38;1.50;;;;;;;;;;5050971;28;20527;-79
2021/01/20 14:31:21;;;;;;;3.00;1.40;;;;;;;;;;5050696;28;20111;-79
2021/01/20 14:33:47;;;;;;;3.70;1.98;;;;;;;;;;5051266;28;20354;-78
2021/01/20 14:36:14;;;;;;;6.40;2.55;;;;;;;;;;5050807;28;20017;-79
2021/01/20 14:38:41;;;;;;;5.30;1.90;;;;;;;;;;5050824;28;20062;-79